sensor_id;sensor_type;location;lat;lon;timestamp;temperature;humidity
27848;DHT22;15212;48.830;8.730;2024-03-22T00:00:52;7.70;99.90
27848;DHT22;15212;48.830;8.730;2024-03-22T00:03:21;7.70;99.90
27848;DHT22;15212;48.830;8.730;2024-03-22T00:05:50;7.80;99.90
27848;DHT22;15212;48.830;8.730;2024-03-22T00:08:18;7.80;99.90
27848;DHT22;15212;48.830;8.730;2024-03-22T00:10:46;7.70;99.90
27848;DHT22;15212;48.830;8.730;2024-03-22T00:13:15;7.60;99.90
27848;DHT22;15212;48.830;8.730;2024-03-22T00:15:44;7.60;99.90
27848;DHT22;15212;48.830;8.730;2024-03-22T00:18:12;7.60;99.90
27848;DHT22;15212;48.830;8.730;2024-03-22T00:20:40;7.60;99.90
27848;DHT22;15212;48.830;8.730;2024-03-22T00:23:09;7.60;99.90
27848;DHT22;15212;48.830;8.730;2024-03-22T00:25:37;7.40;99.90
27848;DHT22;15212;48.830;8.730;2024-03-22T00:28:06;7.40;99.90
27848;DHT22;15212;48.830;8.730;2024-03-22T00:30:34;7.40;99.90
27848;DHT22;15212;48.830;8.730;2024-03-22T00:33:02;7.50;99.90
27848;DHT22;15212;48.830;8.730;2024-03-22T00:35:31;7.60;99.90
27848;DHT22;15212;48.830;8.730;2024-03-22T00:37:59;7.70;99.90
27848;DHT22;15212;48.830;8.730;2024-03-22T00:40:28;7.80;99.90
27848;DHT22;15212;48.830;8.730;2024-03-22T00:42:56;7.80;99.90
27848;DHT22;15212;48.830;8.730;2024-03-22T00:45:26;7.70;99.90
27848;DHT22;15212;48.830;8.730;2024-03-22T00:47:54;7.70;99.90
27848;DHT22;15212;48.830;8.730;2024-03-22T00:50:22;7.70;99.90
27848;DHT22;15212;48.830;8.730;2024-03-22T00:52:51;7.80;99.90
27848;DHT22;15212;48.830;8.730;2024-03-22T00:55:22;7.80;99.90
27848;DHT22;15212;48.830;8.730;2024-03-22T00:57:51;7.90;99.90
27848;DHT22;15212;48.830;8.730;2024-03-22T01:00:19;8.00;99.90
27848;DHT22;15212;48.830;8.730;2024-03-22T01:02:49;8.00;99.90
27848;DHT22;15212;48.830;8.730;2024-03-22T01:05:18;8.00;99.90
27848;DHT22;15212;48.830;8.730;2024-03-22T01:07:46;8.10;99.90
27848;DHT22;15212;48.830;8.730;2024-03-22T01:10:14;8.10;99.90
27848;DHT22;15212;48.830;8.730;2024-03-22T01:12:43;8.00;99.90
27848;DHT22;15212;48.830;8.730;2024-03-22T01:15:11;8.10;99.90
27848;DHT22;15212;48.830;8.730;2024-03-22T01:17:39;8.10;99.90
27848;DHT22;15212;48.830;8.730;2024-03-22T01:20:08;8.10;99.90
27848;DHT22;15212;48.830;8.730;2024-03-22T01:22:37;8.00;99.90
27848;DHT22;15212;48.830;8.730;2024-03-22T01:25:07;8.00;99.90
27848;DHT22;15212;48.830;8.730;2024-03-22T01:27:36;7.90;99.90
27848;DHT22;15212;48.830;8.730;2024-03-22T01:30:05;7.90;99.90
27848;DHT22;15212;48.830;8.730;2024-03-22T01:32:37;7.80;99.90
27848;DHT22;15212;48.830;8.730;2024-03-22T01:35:06;7.70;99.90
27848;DHT22;15212;48.830;8.730;2024-03-22T01:37:35;7.70;99.90
27848;DHT22;15212;48.830;8.730;2024-03-22T01:40:04;7.70;99.90
27848;DHT22;15212;48.830;8.730;2024-03-22T01:42:33;7.70;99.90
27848;DHT22;15212;48.830;8.730;2024-03-22T01:45:01;7.60;99.90
27848;DHT22;15212;48.830;8.730;2024-03-22T01:47:30;7.60;99.90
27848;DHT22;15212;48.830;8.730;2024-03-22T01:49:58;7.50;99.90
27848;DHT22;15212;48.830;8.730;2024-03-22T01:52:27;7.50;99.90
27848;DHT22;15212;48.830;8.730;2024-03-22T01:54:56;7.50;99.90
27848;DHT22;15212;48.830;8.730;2024-03-22T01:57:24;7.60;99.90
27848;DHT22;15212;48.830;8.730;2024-03-22T01:59:54;7.70;99.90
27848;DHT22;15212;48.830;8.730;2024-03-22T02:02:24;7.70;99.90
27848;DHT22;15212;48.830;8.730;2024-03-22T02:04:52;7.60;99.90
27848;DHT22;15212;48.830;8.730;2024-03-22T02:07:21;7.60;99.90
27848;DHT22;15212;48.830;8.730;2024-03-22T02:09:49;7.50;99.90
27848;DHT22;15212;48.830;8.730;2024-03-22T02:12:17;7.50;99.90
27848;DHT22;15212;48.830;8.730;2024-03-22T02:14:46;7.40;99.90
27848;DHT22;15212;48.830;8.730;2024-03-22T02:17:14;7.20;99.90
27848;DHT22;15212;48.830;8.730;2024-03-22T02:19:43;7.10;99.90
27848;DHT22;15212;48.830;8.730;2024-03-22T02:22:11;7.10;99.90
27848;DHT22;15212;48.830;8.730;2024-03-22T02:24:39;7.20;99.90
27848;DHT22;15212;48.830;8.730;2024-03-22T02:27:08;7.20;99.90
27848;DHT22;15212;48.830;8.730;2024-03-22T02:29:36;7.20;99.90
27848;DHT22;15212;48.830;8.730;2024-03-22T02:32:06;7.30;99.90
27848;DHT22;15212;48.830;8.730;2024-03-22T02:34:34;7.30;99.90
27848;DHT22;15212;48.830;8.730;2024-03-22T02:37:03;7.30;99.90
27848;DHT22;15212;48.830;8.730;2024-03-22T02:39:31;7.40;99.90
27848;DHT22;15212;48.830;8.730;2024-03-22T02:42:00;7.40;99.90
27848;DHT22;15212;48.830;8.730;2024-03-22T02:44:28;7.40;99.90
27848;DHT22;15212;48.830;8.730;2024-03-22T02:46:56;7.50;99.90
27848;DHT22;15212;48.830;8.730;2024-03-22T02:49:25;7.50;99.90
27848;DHT22;15212;48.830;8.730;2024-03-22T02:51:54;7.60;99.90
27848;DHT22;15212;48.830;8.730;2024-03-22T02:54:22;7.70;99.90
27848;DHT22;15212;48.830;8.730;2024-03-22T02:56:51;7.80;99.90
27848;DHT22;15212;48.830;8.730;2024-03-22T02:59:19;7.90;99.90
27848;DHT22;15212;48.830;8.730;2024-03-22T03:01:47;8.00;99.90
27848;DHT22;15212;48.830;8.730;2024-03-22T03:04:16;8.00;99.90
27848;DHT22;15212;48.830;8.730;2024-03-22T03:06:44;8.10;99.90
27848;DHT22;15212;48.830;8.730;2024-03-22T03:09:13;8.10;99.90
27848;DHT22;15212;48.830;8.730;2024-03-22T03:11:41;8.10;99.90
27848;DHT22;15212;48.830;8.730;2024-03-22T03:14:09;8.20;99.90
27848;DHT22;15212;48.830;8.730;2024-03-22T03:16:38;8.20;99.90
27848;DHT22;15212;48.830;8.730;2024-03-22T03:19:06;8.20;99.90
27848;DHT22;15212;48.830;8.730;2024-03-22T03:21:35;8.30;99.90
27848;DHT22;15212;48.830;8.730;2024-03-22T03:24:03;8.30;99.90
27848;DHT22;15212;48.830;8.730;2024-03-22T03:26:31;8.30;99.90
27848;DHT22;15212;48.830;8.730;2024-03-22T03:29:00;8.40;99.90
27848;DHT22;15212;48.830;8.730;2024-03-22T03:31:28;8.50;99.90
27848;DHT22;15212;48.830;8.730;2024-03-22T03:33:57;8.50;99.90
27848;DHT22;15212;48.830;8.730;2024-03-22T03:36:25;8.60;99.90
27848;DHT22;15212;48.830;8.730;2024-03-22T03:38:53;8.60;99.90
27848;DHT22;15212;48.830;8.730;2024-03-22T03:41:22;8.70;99.90
27848;DHT22;15212;48.830;8.730;2024-03-22T03:43:50;8.70;99.90
27848;DHT22;15212;48.830;8.730;2024-03-22T03:46:18;8.70;99.90
27848;DHT22;15212;48.830;8.730;2024-03-22T03:48:47;8.80;99.90
27848;DHT22;15212;48.830;8.730;2024-03-22T03:51:15;8.80;99.90
27848;DHT22;15212;48.830;8.730;2024-03-22T03:53:44;8.90;99.90
27848;DHT22;15212;48.830;8.730;2024-03-22T03:56:12;8.90;99.90
27848;DHT22;15212;48.830;8.730;2024-03-22T03:58:40;8.90;99.90
27848;DHT22;15212;48.830;8.730;2024-03-22T04:01:09;8.90;99.90
27848;DHT22;15212;48.830;8.730;2024-03-22T04:03:38;8.90;99.90
27848;DHT22;15212;48.830;8.730;2024-03-22T04:06:06;8.90;99.90
27848;DHT22;15212;48.830;8.730;2024-03-22T04:08:35;8.90;99.90
27848;DHT22;15212;48.830;8.730;2024-03-22T04:11:03;8.90;99.90
27848;DHT22;15212;48.830;8.730;2024-03-22T04:13:32;8.90;99.90
27848;DHT22;15212;48.830;8.730;2024-03-22T04:16:00;8.90;99.90
27848;DHT22;15212;48.830;8.730;2024-03-22T04:18:29;9.00;99.90
27848;DHT22;15212;48.830;8.730;2024-03-22T04:20:58;8.90;99.90
27848;DHT22;15212;48.830;8.730;2024-03-22T04:23:27;8.90;99.90
27848;DHT22;15212;48.830;8.730;2024-03-22T04:25:57;8.90;99.90
27848;DHT22;15212;48.830;8.730;2024-03-22T04:28:31;8.90;99.90
27848;DHT22;15212;48.830;8.730;2024-03-22T04:31:02;8.90;99.90
27848;DHT22;15212;48.830;8.730;2024-03-22T04:33:32;8.90;99.90
27848;DHT22;15212;48.830;8.730;2024-03-22T04:36:01;8.90;99.90
27848;DHT22;15212;48.830;8.730;2024-03-22T04:38:30;8.90;99.90
27848;DHT22;15212;48.830;8.730;2024-03-22T04:40:59;9.00;99.90
27848;DHT22;15212;48.830;8.730;2024-03-22T04:43:28;9.00;99.90
27848;DHT22;15212;48.830;8.730;2024-03-22T04:45:56;9.10;99.90
27848;DHT22;15212;48.830;8.730;2024-03-22T04:48:25;9.10;99.90
27848;DHT22;15212;48.830;8.730;2024-03-22T04:50:53;9.10;99.90
27848;DHT22;15212;48.830;8.730;2024-03-22T04:53:22;9.10;99.90
27848;DHT22;15212;48.830;8.730;2024-03-22T04:55:51;9.10;99.90
27848;DHT22;15212;48.830;8.730;2024-03-22T04:58:21;9.10;99.90
27848;DHT22;15212;48.830;8.730;2024-03-22T05:00:55;9.10;99.90
27848;DHT22;15212;48.830;8.730;2024-03-22T05:03:21;9.10;99.90
27848;DHT22;15212;48.830;8.730;2024-03-22T05:05:50;9.10;99.90
27848;DHT22;15212;48.830;8.730;2024-03-22T05:08:20;9.10;99.90
27848;DHT22;15212;48.830;8.730;2024-03-22T05:10:48;9.10;99.90
27848;DHT22;15212;48.830;8.730;2024-03-22T05:13:17;9.10;99.90
27848;DHT22;15212;48.830;8.730;2024-03-22T05:15:46;9.10;99.90
27848;DHT22;15212;48.830;8.730;2024-03-22T05:18:15;9.00;99.90
27848;DHT22;15212;48.830;8.730;2024-03-22T05:20:44;8.90;99.90
27848;DHT22;15212;48.830;8.730;2024-03-22T05:23:12;8.90;99.90
27848;DHT22;15212;48.830;8.730;2024-03-22T05:25:43;8.70;99.90
27848;DHT22;15212;48.830;8.730;2024-03-22T05:28:11;8.70;99.90
27848;DHT22;15212;48.830;8.730;2024-03-22T05:30:39;8.60;99.90
27848;DHT22;15212;48.830;8.730;2024-03-22T05:33:08;8.50;99.90
27848;DHT22;15212;48.830;8.730;2024-03-22T05:35:36;8.50;99.90
27848;DHT22;15212;48.830;8.730;2024-03-22T05:38:05;8.40;99.90
27848;DHT22;15212;48.830;8.730;2024-03-22T05:40:37;8.20;99.90
27848;DHT22;15212;48.830;8.730;2024-03-22T05:43:06;8.10;99.90
27848;DHT22;15212;48.830;8.730;2024-03-22T05:45:34;8.00;99.90
27848;DHT22;15212;48.830;8.730;2024-03-22T05:48:02;8.00;99.90
27848;DHT22;15212;48.830;8.730;2024-03-22T05:50:31;8.00;99.90
27848;DHT22;15212;48.830;8.730;2024-03-22T05:53:00;7.90;99.90
27848;DHT22;15212;48.830;8.730;2024-03-22T05:55:28;7.90;99.90
27848;DHT22;15212;48.830;8.730;2024-03-22T05:57:58;7.80;99.90
27848;DHT22;15212;48.830;8.730;2024-03-22T06:00:27;7.80;99.90
27848;DHT22;15212;48.830;8.730;2024-03-22T06:02:55;7.90;99.90
27848;DHT22;15212;48.830;8.730;2024-03-22T06:05:23;8.10;99.90
27848;DHT22;15212;48.830;8.730;2024-03-22T06:07:52;8.10;99.90
27848;DHT22;15212;48.830;8.730;2024-03-22T06:10:20;8.30;99.90
27848;DHT22;15212;48.830;8.730;2024-03-22T06:12:48;8.50;99.90
27848;DHT22;15212;48.830;8.730;2024-03-22T06:15:17;8.80;99.90
27848;DHT22;15212;48.830;8.730;2024-03-22T06:17:45;9.20;99.90
27848;DHT22;15212;48.830;8.730;2024-03-22T06:20:13;9.70;99.90
27848;DHT22;15212;48.830;8.730;2024-03-22T06:22:42;10.20;99.90
27848;DHT22;15212;48.830;8.730;2024-03-22T06:25:10;10.70;99.90
27848;DHT22;15212;48.830;8.730;2024-03-22T06:27:39;11.10;99.90
27848;DHT22;15212;48.830;8.730;2024-03-22T06:30:07;11.60;99.90
27848;DHT22;15212;48.830;8.730;2024-03-22T06:32:36;12.00;99.90
27848;DHT22;15212;48.830;8.730;2024-03-22T06:35:05;12.10;99.90
27848;DHT22;15212;48.830;8.730;2024-03-22T06:37:33;12.30;99.90
27848;DHT22;15212;48.830;8.730;2024-03-22T06:40:02;12.30;99.90
27848;DHT22;15212;48.830;8.730;2024-03-22T06:42:31;12.20;99.90
27848;DHT22;15212;48.830;8.730;2024-03-22T06:45:00;12.00;99.90
27848;DHT22;15212;48.830;8.730;2024-03-22T06:47:29;12.00;99.90
27848;DHT22;15212;48.830;8.730;2024-03-22T06:49:57;12.00;99.90
27848;DHT22;15212;48.830;8.730;2024-03-22T06:52:26;12.00;99.90
27848;DHT22;15212;48.830;8.730;2024-03-22T06:54:54;12.00;99.90
27848;DHT22;15212;48.830;8.730;2024-03-22T06:57:22;12.00;99.90
27848;DHT22;15212;48.830;8.730;2024-03-22T06:59:51;12.10;99.90
27848;DHT22;15212;48.830;8.730;2024-03-22T07:02:19;12.10;99.90
27848;DHT22;15212;48.830;8.730;2024-03-22T07:04:48;12.20;99.90
27848;DHT22;15212;48.830;8.730;2024-03-22T07:07:16;12.20;99.90
27848;DHT22;15212;48.830;8.730;2024-03-22T07:09:45;12.30;99.90
27848;DHT22;15212;48.830;8.730;2024-03-22T07:12:14;12.40;99.90
27848;DHT22;15212;48.830;8.730;2024-03-22T07:14:42;12.50;99.90
27848;DHT22;15212;48.830;8.730;2024-03-22T07:17:11;12.60;99.90
27848;DHT22;15212;48.830;8.730;2024-03-22T07:19:39;12.70;99.90
27848;DHT22;15212;48.830;8.730;2024-03-22T07:22:08;12.80;99.90
27848;DHT22;15212;48.830;8.730;2024-03-22T07:24:36;12.90;99.90
27848;DHT22;15212;48.830;8.730;2024-03-22T07:27:04;13.10;99.90
27848;DHT22;15212;48.830;8.730;2024-03-22T07:29:33;13.20;99.90
27848;DHT22;15212;48.830;8.730;2024-03-22T07:32:01;13.30;99.90
27848;DHT22;15212;48.830;8.730;2024-03-22T07:34:30;13.50;99.90
27848;DHT22;15212;48.830;8.730;2024-03-22T07:36:58;13.50;99.90
27848;DHT22;15212;48.830;8.730;2024-03-22T07:39:27;13.60;99.90
27848;DHT22;15212;48.830;8.730;2024-03-22T07:41:56;13.70;99.90
27848;DHT22;15212;48.830;8.730;2024-03-22T07:44:24;13.60;99.90
27848;DHT22;15212;48.830;8.730;2024-03-22T07:46:54;13.80;99.90
27848;DHT22;15212;48.830;8.730;2024-03-22T07:49:23;13.70;99.90
27848;DHT22;15212;48.830;8.730;2024-03-22T07:51:51;13.50;99.90
27848;DHT22;15212;48.830;8.730;2024-03-22T07:54:20;13.30;99.90
27848;DHT22;15212;48.830;8.730;2024-03-22T07:56:48;13.30;99.90
27848;DHT22;15212;48.830;8.730;2024-03-22T07:59:16;13.30;99.90
27848;DHT22;15212;48.830;8.730;2024-03-22T08:01:45;13.40;99.90
27848;DHT22;15212;48.830;8.730;2024-03-22T08:04:14;13.40;99.90
27848;DHT22;15212;48.830;8.730;2024-03-22T08:06:43;13.40;99.90
27848;DHT22;15212;48.830;8.730;2024-03-22T08:09:11;13.60;99.90
27848;DHT22;15212;48.830;8.730;2024-03-22T08:11:39;13.70;99.90
27848;DHT22;15212;48.830;8.730;2024-03-22T08:14:08;13.70;99.90
27848;DHT22;15212;48.830;8.730;2024-03-22T08:16:36;13.90;99.90
27848;DHT22;15212;48.830;8.730;2024-03-22T08:19:04;14.00;99.90
27848;DHT22;15212;48.830;8.730;2024-03-22T08:21:33;14.00;99.90
27848;DHT22;15212;48.830;8.730;2024-03-22T08:24:03;13.90;99.90
27848;DHT22;15212;48.830;8.730;2024-03-22T08:26:32;13.70;99.90
27848;DHT22;15212;48.830;8.730;2024-03-22T08:29:00;13.70;99.90
27848;DHT22;15212;48.830;8.730;2024-03-22T08:31:28;13.70;99.90
27848;DHT22;15212;48.830;8.730;2024-03-22T08:33:57;13.80;99.90
27848;DHT22;15212;48.830;8.730;2024-03-22T08:36:25;13.80;99.90
27848;DHT22;15212;48.830;8.730;2024-03-22T08:38:53;13.80;99.90
27848;DHT22;15212;48.830;8.730;2024-03-22T08:41:22;13.90;99.90
27848;DHT22;15212;48.830;8.730;2024-03-22T08:43:51;14.00;99.90
27848;DHT22;15212;48.830;8.730;2024-03-22T08:46:19;14.00;99.90
27848;DHT22;15212;48.830;8.730;2024-03-22T08:48:49;14.10;99.90
27848;DHT22;15212;48.830;8.730;2024-03-22T08:51:17;14.20;99.90
27848;DHT22;15212;48.830;8.730;2024-03-22T08:53:46;14.30;99.90
27848;DHT22;15212;48.830;8.730;2024-03-22T08:56:14;14.40;99.90
27848;DHT22;15212;48.830;8.730;2024-03-22T08:58:42;14.40;99.90
27848;DHT22;15212;48.830;8.730;2024-03-22T09:01:11;14.50;99.90
27848;DHT22;15212;48.830;8.730;2024-03-22T09:03:39;14.60;99.90
27848;DHT22;15212;48.830;8.730;2024-03-22T09:06:09;14.60;99.90
27848;DHT22;15212;48.830;8.730;2024-03-22T09:08:37;14.70;99.90
27848;DHT22;15212;48.830;8.730;2024-03-22T09:11:06;14.70;99.90
27848;DHT22;15212;48.830;8.730;2024-03-22T09:13:35;14.70;99.90
27848;DHT22;15212;48.830;8.730;2024-03-22T09:16:03;14.70;99.90
27848;DHT22;15212;48.830;8.730;2024-03-22T09:18:32;14.70;99.90
27848;DHT22;15212;48.830;8.730;2024-03-22T09:21:00;14.60;99.90
27848;DHT22;15212;48.830;8.730;2024-03-22T09:23:29;14.60;99.90
27848;DHT22;15212;48.830;8.730;2024-03-22T09:25:57;14.60;99.90
27848;DHT22;15212;48.830;8.730;2024-03-22T09:28:26;14.70;99.90
27848;DHT22;15212;48.830;8.730;2024-03-22T09:30:54;14.90;99.90
27848;DHT22;15212;48.830;8.730;2024-03-22T09:33:23;14.90;99.90
27848;DHT22;15212;48.830;8.730;2024-03-22T09:35:51;15.00;99.90
27848;DHT22;15212;48.830;8.730;2024-03-22T09:38:20;15.00;99.90
27848;DHT22;15212;48.830;8.730;2024-03-22T09:40:48;15.10;99.90
27848;DHT22;15212;48.830;8.730;2024-03-22T09:43:19;15.10;99.90
27848;DHT22;15212;48.830;8.730;2024-03-22T09:45:49;15.10;99.90
27848;DHT22;15212;48.830;8.730;2024-03-22T09:48:20;15.00;99.90
27848;DHT22;15212;48.830;8.730;2024-03-22T09:50:49;15.00;99.90
27848;DHT22;15212;48.830;8.730;2024-03-22T09:53:19;15.00;99.90
27848;DHT22;15212;48.830;8.730;2024-03-22T09:55:52;15.00;99.90
27848;DHT22;15212;48.830;8.730;2024-03-22T09:58:23;15.20;99.90
27848;DHT22;15212;48.830;8.730;2024-03-22T10:00:52;15.30;99.90
27848;DHT22;15212;48.830;8.730;2024-03-22T10:03:22;15.40;99.90
27848;DHT22;15212;48.830;8.730;2024-03-22T10:05:50;15.60;99.90
27848;DHT22;15212;48.830;8.730;2024-03-22T10:08:19;15.70;99.90
27848;DHT22;15212;48.830;8.730;2024-03-22T10:10:47;15.90;99.90
27848;DHT22;15212;48.830;8.730;2024-03-22T10:13:15;15.90;99.90
27848;DHT22;15212;48.830;8.730;2024-03-22T10:15:45;16.00;99.90
27848;DHT22;15212;48.830;8.730;2024-03-22T10:18:15;16.10;99.90
27848;DHT22;15212;48.830;8.730;2024-03-22T10:20:43;16.30;99.90
27848;DHT22;15212;48.830;8.730;2024-03-22T10:23:11;16.40;99.90
27848;DHT22;15212;48.830;8.730;2024-03-22T10:25:40;16.50;99.90
27848;DHT22;15212;48.830;8.730;2024-03-22T10:28:09;16.60;99.90
27848;DHT22;15212;48.830;8.730;2024-03-22T10:30:39;16.60;99.90
27848;DHT22;15212;48.830;8.730;2024-03-22T10:33:09;16.80;99.90
27848;DHT22;15212;48.830;8.730;2024-03-22T10:35:37;16.90;99.90
27848;DHT22;15212;48.830;8.730;2024-03-22T10:38:07;17.00;99.90
27848;DHT22;15212;48.830;8.730;2024-03-22T10:40:37;16.90;99.90
27848;DHT22;15212;48.830;8.730;2024-03-22T10:43:07;17.00;99.90
27848;DHT22;15212;48.830;8.730;2024-03-22T10:45:37;17.10;99.90
27848;DHT22;15212;48.830;8.730;2024-03-22T10:48:11;17.00;99.90
27848;DHT22;15212;48.830;8.730;2024-03-22T10:50:40;16.90;99.90
27848;DHT22;15212;48.830;8.730;2024-03-22T10:53:20;16.90;99.90
27848;DHT22;15212;48.830;8.730;2024-03-22T10:55:53;16.90;99.90
27848;DHT22;15212;48.830;8.730;2024-03-22T10:58:23;16.90;99.90
27848;DHT22;15212;48.830;8.730;2024-03-22T11:00:52;16.90;99.90
27848;DHT22;15212;48.830;8.730;2024-03-22T11:03:23;17.00;99.90
27848;DHT22;15212;48.830;8.730;2024-03-22T11:05:56;17.10;99.90
27848;DHT22;15212;48.830;8.730;2024-03-22T11:08:26;17.10;99.90
27848;DHT22;15212;48.830;8.730;2024-03-22T11:10:57;17.20;99.90
27848;DHT22;15212;48.830;8.730;2024-03-22T11:13:25;17.10;99.90
27848;DHT22;15212;48.830;8.730;2024-03-22T11:15:54;17.20;99.90
27848;DHT22;15212;48.830;8.730;2024-03-22T11:18:23;17.20;99.90
27848;DHT22;15212;48.830;8.730;2024-03-22T11:20:51;17.20;99.90
27848;DHT22;15212;48.830;8.730;2024-03-22T11:23:20;17.30;99.90
27848;DHT22;15212;48.830;8.730;2024-03-22T11:25:48;17.40;99.90
27848;DHT22;15212;48.830;8.730;2024-03-22T11:28:17;17.60;99.90
27848;DHT22;15212;48.830;8.730;2024-03-22T11:30:46;17.70;99.90
27848;DHT22;15212;48.830;8.730;2024-03-22T11:33:15;17.70;99.90
27848;DHT22;15212;48.830;8.730;2024-03-22T11:35:44;17.70;99.90
27848;DHT22;15212;48.830;8.730;2024-03-22T11:38:13;17.60;99.90
27848;DHT22;15212;48.830;8.730;2024-03-22T11:40:44;17.40;99.90
27848;DHT22;15212;48.830;8.730;2024-03-22T11:43:14;17.30;99.90
27848;DHT22;15212;48.830;8.730;2024-03-22T11:45:43;17.30;99.90
27848;DHT22;15212;48.830;8.730;2024-03-22T11:48:12;17.30;99.90
27848;DHT22;15212;48.830;8.730;2024-03-22T11:50:40;17.30;99.90
27848;DHT22;15212;48.830;8.730;2024-03-22T11:53:09;17.30;99.90
27848;DHT22;15212;48.830;8.730;2024-03-22T11:55:37;17.30;99.90
27848;DHT22;15212;48.830;8.730;2024-03-22T11:58:08;17.40;99.90
27848;DHT22;15212;48.830;8.730;2024-03-22T12:00:39;17.40;99.90
27848;DHT22;15212;48.830;8.730;2024-03-22T12:03:09;17.40;99.90
27848;DHT22;15212;48.830;8.730;2024-03-22T12:05:38;17.40;98.30
27848;DHT22;15212;48.830;8.730;2024-03-22T12:08:08;17.40;96.00
27848;DHT22;15212;48.830;8.730;2024-03-22T12:10:36;17.50;96.20
27848;DHT22;15212;48.830;8.730;2024-03-22T12:13:04;17.60;94.80
27848;DHT22;15212;48.830;8.730;2024-03-22T12:15:33;17.60;95.50
27848;DHT22;15212;48.830;8.730;2024-03-22T12:18:02;17.60;96.20
27848;DHT22;15212;48.830;8.730;2024-03-22T12:20:30;17.60;97.00
27848;DHT22;15212;48.830;8.730;2024-03-22T12:22:59;17.70;97.80
27848;DHT22;15212;48.830;8.730;2024-03-22T12:25:27;17.70;98.10
27848;DHT22;15212;48.830;8.730;2024-03-22T12:27:55;17.80;97.90
27848;DHT22;15212;48.830;8.730;2024-03-22T12:30:24;17.90;97.30
27848;DHT22;15212;48.830;8.730;2024-03-22T12:32:52;18.00;96.80
27848;DHT22;15212;48.830;8.730;2024-03-22T12:35:21;17.90;97.70
27848;DHT22;15212;48.830;8.730;2024-03-22T12:37:49;17.80;97.60
27848;DHT22;15212;48.830;8.730;2024-03-22T12:40:17;17.90;97.80
27848;DHT22;15212;48.830;8.730;2024-03-22T12:42:46;17.80;97.60
27848;DHT22;15212;48.830;8.730;2024-03-22T12:45:14;17.90;95.40
27848;DHT22;15212;48.830;8.730;2024-03-22T12:47:43;17.80;95.60
27848;DHT22;15212;48.830;8.730;2024-03-22T12:50:11;17.80;94.60
27848;DHT22;15212;48.830;8.730;2024-03-22T12:52:40;17.80;94.60
27848;DHT22;15212;48.830;8.730;2024-03-22T12:55:10;17.70;93.70
27848;DHT22;15212;48.830;8.730;2024-03-22T12:57:39;17.70;93.70
27848;DHT22;15212;48.830;8.730;2024-03-22T13:00:07;17.60;94.10
27848;DHT22;15212;48.830;8.730;2024-03-22T13:02:41;17.70;93.70
27848;DHT22;15212;48.830;8.730;2024-03-22T13:05:09;17.70;93.70
27848;DHT22;15212;48.830;8.730;2024-03-22T13:07:37;17.70;93.10
27848;DHT22;15212;48.830;8.730;2024-03-22T13:10:06;17.70;93.80
27848;DHT22;15212;48.830;8.730;2024-03-22T13:12:35;17.70;93.50
27848;DHT22;15212;48.830;8.730;2024-03-22T13:15:04;17.80;93.50
27848;DHT22;15212;48.830;8.730;2024-03-22T13:17:33;17.70;94.30
27848;DHT22;15212;48.830;8.730;2024-03-22T13:20:01;17.80;93.80
27848;DHT22;15212;48.830;8.730;2024-03-22T13:22:31;17.80;95.00
27848;DHT22;15212;48.830;8.730;2024-03-22T13:24:59;17.70;95.40
27848;DHT22;15212;48.830;8.730;2024-03-22T13:27:28;17.80;95.60
27848;DHT22;15212;48.830;8.730;2024-03-22T13:29:56;17.80;95.70
27848;DHT22;15212;48.830;8.730;2024-03-22T13:32:25;17.90;95.80
27848;DHT22;15212;48.830;8.730;2024-03-22T13:34:53;17.90;95.70
27848;DHT22;15212;48.830;8.730;2024-03-22T13:37:22;17.80;96.00
27848;DHT22;15212;48.830;8.730;2024-03-22T13:39:50;17.80;95.50
27848;DHT22;15212;48.830;8.730;2024-03-22T13:42:19;17.60;96.00
27848;DHT22;15212;48.830;8.730;2024-03-22T13:44:47;17.50;96.60
27848;DHT22;15212;48.830;8.730;2024-03-22T13:47:15;17.50;97.80
27848;DHT22;15212;48.830;8.730;2024-03-22T13:49:44;17.50;97.50
27848;DHT22;15212;48.830;8.730;2024-03-22T13:52:13;17.50;98.20
27848;DHT22;15212;48.830;8.730;2024-03-22T13:54:41;17.50;97.30
27848;DHT22;15212;48.830;8.730;2024-03-22T13:57:09;17.40;96.60
27848;DHT22;15212;48.830;8.730;2024-03-22T13:59:38;17.40;96.40
27848;DHT22;15212;48.830;8.730;2024-03-22T14:02:07;17.30;95.80
27848;DHT22;15212;48.830;8.730;2024-03-22T14:04:35;17.10;96.20
27848;DHT22;15212;48.830;8.730;2024-03-22T14:07:04;17.10;95.90
27848;DHT22;15212;48.830;8.730;2024-03-22T14:09:33;17.10;96.10
27848;DHT22;15212;48.830;8.730;2024-03-22T14:12:01;17.00;96.30
27848;DHT22;15212;48.830;8.730;2024-03-22T14:14:30;16.90;96.70
27848;DHT22;15212;48.830;8.730;2024-03-22T14:16:58;16.80;96.50
27848;DHT22;15212;48.830;8.730;2024-03-22T14:19:27;16.80;96.40
27848;DHT22;15212;48.830;8.730;2024-03-22T14:21:55;16.70;97.00
27848;DHT22;15212;48.830;8.730;2024-03-22T14:24:24;16.80;97.40
27848;DHT22;15212;48.830;8.730;2024-03-22T14:26:52;16.80;97.60
27848;DHT22;15212;48.830;8.730;2024-03-22T14:29:21;16.80;97.20
27848;DHT22;15212;48.830;8.730;2024-03-22T14:31:49;16.80;97.30
27848;DHT22;15212;48.830;8.730;2024-03-22T14:34:18;16.80;97.40
27848;DHT22;15212;48.830;8.730;2024-03-22T14:36:46;16.80;97.40
27848;DHT22;15212;48.830;8.730;2024-03-22T14:39:15;16.80;97.80
27848;DHT22;15212;48.830;8.730;2024-03-22T14:41:43;16.70;97.60
27848;DHT22;15212;48.830;8.730;2024-03-22T14:44:11;16.60;98.60
27848;DHT22;15212;48.830;8.730;2024-03-22T14:46:40;16.60;98.50
27848;DHT22;15212;48.830;8.730;2024-03-22T14:49:08;16.60;98.60
27848;DHT22;15212;48.830;8.730;2024-03-22T14:51:37;16.60;99.10
27848;DHT22;15212;48.830;8.730;2024-03-22T14:54:05;16.50;99.60
27848;DHT22;15212;48.830;8.730;2024-03-22T14:56:33;16.40;99.90
27848;DHT22;15212;48.830;8.730;2024-03-22T14:59:02;16.40;99.90
27848;DHT22;15212;48.830;8.730;2024-03-22T15:01:30;16.40;99.90
27848;DHT22;15212;48.830;8.730;2024-03-22T15:03:58;16.30;99.90
27848;DHT22;15212;48.830;8.730;2024-03-22T15:06:27;16.20;99.10
27848;DHT22;15212;48.830;8.730;2024-03-22T15:08:58;16.20;99.30
27848;DHT22;15212;48.830;8.730;2024-03-22T15:11:28;16.10;99.70
27848;DHT22;15212;48.830;8.730;2024-03-22T15:13:56;16.10;99.40
27848;DHT22;15212;48.830;8.730;2024-03-22T15:16:24;16.00;99.90
27848;DHT22;15212;48.830;8.730;2024-03-22T15:18:53;16.00;99.90
27848;DHT22;15212;48.830;8.730;2024-03-22T15:21:23;16.00;99.60
27848;DHT22;15212;48.830;8.730;2024-03-22T15:23:51;16.00;99.90
27848;DHT22;15212;48.830;8.730;2024-03-22T15:26:20;16.00;99.90
27848;DHT22;15212;48.830;8.730;2024-03-22T15:28:48;15.90;99.90
27848;DHT22;15212;48.830;8.730;2024-03-22T15:31:16;15.90;99.90
27848;DHT22;15212;48.830;8.730;2024-03-22T15:33:45;15.90;99.90
27848;DHT22;15212;48.830;8.730;2024-03-22T15:36:13;15.90;99.90
27848;DHT22;15212;48.830;8.730;2024-03-22T15:38:41;15.90;99.90
27848;DHT22;15212;48.830;8.730;2024-03-22T15:41:12;15.90;99.90
27848;DHT22;15212;48.830;8.730;2024-03-22T15:43:42;15.80;99.90
27848;DHT22;15212;48.830;8.730;2024-03-22T15:46:10;15.80;99.90